Time;durP1;ratioP1;P1;durP2;ratioP2;P2;SDS_P1;SDS_P2;PMS_P1;PMS_P2;Temp;Humidity;BMP_temperature;BMP_pressure;BME280_temperature;BME280_humidity;BME280_pressure;Samples;Min_cycle;Max_cycle;Signal;HPM_P1;HPM_P2
2022/08/18 00:02:13;;;;;;;1.90;1.80;;;;;;;;;;5021674;28;20228;-56
2022/08/18 00:04:39;;;;;;;1.60;1.60;;;;;;;;;;5032703;28;20338;-56
2022/08/18 00:07:06;;;;;;;2.10;2.00;;;;;;;;;;5040639;28;20330;-56
2022/08/18 00:09:33;;;;;;;1.93;1.83;;;;;;;;;;5034296;28;20220;-56
2022/08/18 00:12:00;;;;;;;2.00;1.90;;;;;;;;;;5031444;28;20562;-56
2022/08/18 00:14:26;;;;;;;1.87;1.77;;;;;;;;;;5029851;28;20231;-56
2022/08/18 00:16:52;;;;;;;1.90;1.80;;;;;;;;;;5034712;28;20225;-56
2022/08/18 00:19:18;;;;;;;1.90;1.80;;;;;;;;;;5036380;28;20221;-56
2022/08/18 00:21:44;;;;;;;2.10;2.00;;;;;;;;;;5031400;28;20281;-56
2022/08/18 00:24:10;;;;;;;2.33;2.23;;;;;;;;;;5039068;28;20234;-56
2022/08/18 00:26:36;;;;;;;2.10;2.00;;;;;;;;;;5047916;28;20228;-56
2022/08/18 00:29:02;;;;;;;1.90;1.80;;;;;;;;;;5041848;28;20677;-56
2022/08/18 00:31:28;;;;;;;2.33;2.23;;;;;;;;;;5045597;28;20256;-56
2022/08/18 00:33:54;;;;;;;2.03;1.93;;;;;;;;;;5049226;28;20210;-56
2022/08/18 00:36:20;;;;;;;1.60;1.60;;;;;;;;;;5044344;28;20244;-56
2022/08/18 00:38:46;;;;;;;1.80;1.70;;;;;;;;;;5042523;28;20270;-56
2022/08/18 00:41:12;;;;;;;1.90;1.80;;;;;;;;;;5040713;28;20223;-56
2022/08/18 00:43:48;;;;;;;2.00;1.90;;;;;;;;;;5044161;28;20940;-56
2022/08/18 00:46:18;;;;;;;2.10;2.00;;;;;;;;;;5040323;28;20230;-56
2022/08/18 00:48:44;;;;;;;2.10;2.00;;;;;;;;;;5051201;28;20262;-56
2022/08/18 00:51:11;;;;;;;2.33;2.23;;;;;;;;;;5046263;28;20317;-56
2022/08/18 00:53:40;;;;;;;2.20;2.10;;;;;;;;;;5004142;28;21745;-56
2022/08/18 00:56:07;;;;;;;2.13;2.03;;;;;;;;;;5040227;28;20224;-56
2022/08/18 00:58:36;;;;;;;2.00;1.90;;;;;;;;;;5032977;28;20235;-56
2022/08/18 01:01:03;;;;;;;2.00;1.90;;;;;;;;;;5037776;28;20611;-56
2022/08/18 01:03:29;;;;;;;2.10;2.00;;;;;;;;;;5033149;28;20231;-56
2022/08/18 01:06:05;;;;;;;2.10;2.00;;;;;;;;;;5030500;28;20248;-56
2022/08/18 01:08:31;;;;;;;1.90;1.80;;;;;;;;;;5024334;28;20219;-56
2022/08/18 01:10:57;;;;;;;2.20;2.10;;;;;;;;;;5033411;28;20658;-56
2022/08/18 01:13:28;;;;;;;2.37;2.27;;;;;;;;;;5054943;28;20413;-56
2022/08/18 01:15:54;;;;;;;2.00;1.90;;;;;;;;;;5033764;28;20729;-56
2022/08/18 01:23:50;;;;;;;2.20;2.10;;;;;;;;;;5034783;28;21116;-56
2022/08/18 01:26:16;;;;;;;1.70;1.70;;;;;;;;;;5030975;28;20231;-56
2022/08/18 01:28:43;;;;;;;1.90;1.80;;;;;;;;;;5042464;28;20752;-56
2022/08/18 01:31:09;;;;;;;1.93;1.83;;;;;;;;;;5032191;28;20707;-56
2022/08/18 01:33:37;;;;;;;1.50;1.50;;;;;;;;;;5045720;28;20211;-56
2022/08/18 01:36:07;;;;;;;2.30;2.20;;;;;;;;;;5038828;28;20231;-56
2022/08/18 01:38:33;;;;;;;1.67;1.67;;;;;;;;;;5019029;28;20316;-56
2022/08/18 01:40:59;;;;;;;1.87;1.77;;;;;;;;;;5042854;28;20511;-56
2022/08/18 01:43:25;;;;;;;2.00;1.90;;;;;;;;;;5035100;28;20316;-56
2022/08/18 01:45:51;;;;;;;1.50;1.50;;;;;;;;;;5040334;28;20301;-56
2022/08/18 01:48:17;;;;;;;2.10;2.00;;;;;;;;;;5048901;28;20232;-56
2022/08/18 01:50:44;;;;;;;1.50;1.50;;;;;;;;;;5023765;28;20749;-56
2022/08/18 01:53:10;;;;;;;1.60;1.60;;;;;;;;;;5041513;28;20231;-56
2022/08/18 01:55:37;;;;;;;1.60;1.60;;;;;;;;;;5026070;28;20313;-56
2022/08/18 01:58:03;;;;;;;1.93;1.83;;;;;;;;;;5038557;28;20228;-56
2022/08/18 02:00:31;;;;;;;1.47;1.47;;;;;;;;;;5044896;28;20285;-56
2022/08/18 02:02:57;;;;;;;1.50;1.50;;;;;;;;;;5040683;28;20274;-56
2022/08/18 02:05:24;;;;;;;1.60;1.60;;;;;;;;;;5048811;28;20232;-56
2022/08/18 02:07:50;;;;;;;1.80;1.70;;;;;;;;;;5034262;28;20700;-56
2022/08/18 02:10:17;;;;;;;1.60;1.60;;;;;;;;;;5037352;28;20227;-56
2022/08/18 02:12:43;;;;;;;1.90;1.80;;;;;;;;;;5030743;28;20213;-56
2022/08/18 02:15:09;;;;;;;1.50;1.50;;;;;;;;;;5022166;28;20290;-56
2022/08/18 02:17:39;;;;;;;2.03;1.93;;;;;;;;;;5037237;28;20254;-56
2022/08/18 02:20:05;;;;;;;1.43;1.43;;;;;;;;;;5035956;28;21106;-56
2022/08/18 02:22:31;;;;;;;1.90;1.80;;;;;;;;;;5040237;28;20720;-56
2022/08/18 02:24:57;;;;;;;1.50;1.50;;;;;;;;;;5044328;28;20228;-57
2022/08/18 02:27:23;;;;;;;1.80;1.70;;;;;;;;;;5045121;28;20223;-56
2022/08/18 02:29:49;;;;;;;2.10;2.00;;;;;;;;;;5045379;28;20613;-56
2022/08/18 02:32:15;;;;;;;1.97;1.87;;;;;;;;;;5040160;28;20227;-56
2022/08/18 02:34:41;;;;;;;2.33;2.23;;;;;;;;;;5044689;28;20306;-57
2022/08/18 02:37:08;;;;;;;1.90;1.80;;;;;;;;;;5036410;28;20255;-56
2022/08/18 02:39:36;;;;;;;2.20;2.10;;;;;;;;;;5037542;28;20235;-57
2022/08/18 02:42:02;;;;;;;1.73;1.70;;;;;;;;;;5026767;28;20841;-56
2022/08/18 02:44:28;;;;;;;2.30;2.20;;;;;;;;;;5037509;28;20232;-56
2022/08/18 02:46:54;;;;;;;2.37;2.27;;;;;;;;;;5037645;28;20220;-56
2022/08/18 02:49:20;;;;;;;2.00;1.90;;;;;;;;;;5021383;28;20241;-56
2022/08/18 02:51:46;;;;;;;1.90;1.80;;;;;;;;;;5035577;28;20223;-56
2022/08/18 02:54:12;;;;;;;2.57;2.47;;;;;;;;;;5024982;28;20217;-57
2022/08/18 02:56:38;;;;;;;2.23;2.13;;;;;;;;;;5037844;28;20698;-57
2022/08/18 02:59:05;;;;;;;2.27;2.17;;;;;;;;;;5040928;28;20765;-56
2022/08/18 03:01:32;;;;;;;1.93;1.83;;;;;;;;;;5046458;28;20283;-56
2022/08/18 03:03:58;;;;;;;2.10;2.00;;;;;;;;;;5040648;28;20212;-56
2022/08/18 03:06:24;;;;;;;2.20;2.10;;;;;;;;;;5028333;28;20266;-56
2022/08/18 03:08:51;;;;;;;1.90;1.80;;;;;;;;;;5036564;28;21050;-56
2022/08/18 03:11:17;;;;;;;2.10;2.00;;;;;;;;;;5042871;28;20997;-56
2022/08/18 03:13:45;;;;;;;2.00;1.90;;;;;;;;;;5029510;28;20234;-56
2022/08/18 03:16:11;;;;;;;2.10;2.00;;;;;;;;;;5046855;28;20280;-56
2022/08/18 03:18:37;;;;;;;2.20;2.10;;;;;;;;;;5042018;28;20306;-56
2022/08/18 03:21:07;;;;;;;1.90;1.80;;;;;;;;;;5046031;28;20231;-56
2022/08/18 03:23:32;;;;;;;2.00;1.90;;;;;;;;;;5035014;28;20566;-57
2022/08/18 03:25:58;;;;;;;2.03;1.93;;;;;;;;;;5040789;28;20224;-57
2022/08/18 03:28:24;;;;;;;2.00;1.90;;;;;;;;;;5045967;28;20221;-56
2022/08/18 03:30:50;;;;;;;2.40;2.30;;;;;;;;;;5041933;28;20624;-56
2022/08/18 03:33:16;;;;;;;2.00;1.90;;;;;;;;;;5043070;28;20590;-56
2022/08/18 03:35:42;;;;;;;2.67;2.57;;;;;;;;;;5039196;28;20556;-56
2022/08/18 03:38:08;;;;;;;2.33;2.23;;;;;;;;;;5053419;28;20277;-56
2022/08/18 03:40:35;;;;;;;2.50;2.40;;;;;;;;;;5036633;28;20239;-56
2022/08/18 03:43:07;;;;;;;2.40;2.30;;;;;;;;;;5043263;28;20617;-56
2022/08/18 03:45:33;;;;;;;2.20;2.10;;;;;;;;;;5051979;28;20413;-56
2022/08/18 03:48:00;;;;;;;2.70;2.60;;;;;;;;;;5047265;28;20303;-56
2022/08/18 03:50:26;;;;;;;1.80;1.70;;;;;;;;;;5034932;28;20592;-57
2022/08/18 03:52:54;;;;;;;1.50;1.50;;;;;;;;;;5043316;28;20688;-56
2022/08/18 03:55:20;;;;;;;2.03;1.93;;;;;;;;;;5031086;28;20517;-57
2022/08/18 03:57:46;;;;;;;2.00;1.90;;;;;;;;;;5039485;28;20290;-57
2022/08/18 04:00:12;;;;;;;1.97;1.87;;;;;;;;;;5040511;28;20220;-56
2022/08/18 04:02:38;;;;;;;1.80;1.70;;;;;;;;;;5043363;28;20302;-56
2022/08/18 04:05:05;;;;;;;2.20;2.10;;;;;;;;;;5036640;28;20342;-56
2022/08/18 04:07:30;;;;;;;2.00;1.90;;;;;;;;;;5034703;28;20303;-56
2022/08/18 04:09:56;;;;;;;1.80;1.70;;;;;;;;;;5022776;28;20224;-56
2022/08/18 04:12:22;;;;;;;2.30;2.20;;;;;;;;;;5025404;28;20232;-57
2022/08/18 04:14:49;;;;;;;2.00;1.90;;;;;;;;;;5041418;28;20580;-56
2022/08/18 04:17:15;;;;;;;1.90;1.80;;;;;;;;;;5037060;28;20247;-56
2022/08/18 04:19:41;;;;;;;2.27;2.17;;;;;;;;;;5040660;28;20345;-56
2022/08/18 04:22:07;;;;;;;2.33;2.23;;;;;;;;;;5043951;28;20267;-57
2022/08/18 04:24:33;;;;;;;2.10;2.00;;;;;;;;;;5024528;28;20774;-56
2022/08/18 04:27:00;;;;;;;2.20;2.10;;;;;;;;;;5046635;28;20228;-56
2022/08/18 04:29:26;;;;;;;2.33;2.23;;;;;;;;;;5025498;28;20490;-57
2022/08/18 04:31:52;;;;;;;2.17;2.07;;;;;;;;;;5024498;28;20225;-56
2022/08/18 04:34:19;;;;;;;1.93;1.83;;;;;;;;;;5048173;28;20588;-57
2022/08/18 04:36:45;;;;;;;2.00;1.90;;;;;;;;;;5035682;28;20259;-56
2022/08/18 04:39:11;;;;;;;2.27;2.17;;;;;;;;;;5037458;28;20331;-56
2022/08/18 04:41:37;;;;;;;2.10;2.00;;;;;;;;;;5027202;28;20224;-57
2022/08/18 04:44:04;;;;;;;2.00;1.90;;;;;;;;;;5041740;28;20834;-57
2022/08/18 04:46:30;;;;;;;1.90;1.80;;;;;;;;;;5037466;28;20407;-57
2022/08/18 04:48:57;;;;;;;2.20;2.10;;;;;;;;;;5023243;28;20216;-57
2022/08/18 04:51:23;;;;;;;2.23;2.13;;;;;;;;;;5042743;28;20258;-57
2022/08/18 04:53:49;;;;;;;1.80;1.70;;;;;;;;;;5030378;28;20365;-57
2022/08/18 04:56:29;;;;;;;2.10;2.00;;;;;;;;;;5033441;28;20632;-56
2022/08/18 04:58:55;;;;;;;1.67;1.63;;;;;;;;;;5034998;28;20592;-56
2022/08/18 05:01:23;;;;;;;1.67;1.67;;;;;;;;;;5040973;28;20232;-56
2022/08/18 05:03:49;;;;;;;1.63;1.63;;;;;;;;;;5007781;28;20227;-57
2022/08/18 05:06:15;;;;;;;1.93;1.83;;;;;;;;;;5026838;28;20940;-56
2022/08/18 05:08:41;;;;;;;1.60;1.60;;;;;;;;;;5039132;28;20216;-56
2022/08/18 05:11:08;;;;;;;2.00;1.90;;;;;;;;;;5030240;28;20222;-56
2022/08/18 05:13:34;;;;;;;2.00;1.90;;;;;;;;;;5047984;28;20280;-56
2022/08/18 05:16:02;;;;;;;2.20;2.10;;;;;;;;;;5046333;28;20224;-56
2022/08/18 05:18:28;;;;;;;2.00;1.90;;;;;;;;;;5035367;28;20645;-56
2022/08/18 05:20:55;;;;;;;2.20;2.10;;;;;;;;;;5031927;28;20223;-56
2022/08/18 05:23:21;;;;;;;2.13;2.03;;;;;;;;;;5011145;28;20216;-55
2022/08/18 05:25:47;;;;;;;2.00;1.90;;;;;;;;;;5029118;28;20259;-56
2022/08/18 05:28:13;;;;;;;2.40;2.30;;;;;;;;;;5043830;28;20221;-56
2022/08/18 05:30:40;;;;;;;2.10;2.00;;;;;;;;;;5030275;28;20612;-55
2022/08/18 05:33:06;;;;;;;2.37;2.27;;;;;;;;;;5022042;28;20230;-56
2022/08/18 05:36:00;;;;;;;2.30;2.20;;;;;;;;;;5030130;28;20239;-56
2022/08/18 05:38:32;;;;;;;1.90;1.80;;;;;;;;;;5022650;28;20235;-57
2022/08/18 05:41:19;;;;;;;2.30;2.20;;;;;;;;;;5035442;28;20224;-58
2022/08/18 05:43:45;;;;;;;2.30;2.20;;;;;;;;;;5032733;28;20231;-58
2022/08/18 05:46:11;;;;;;;2.40;2.30;;;;;;;;;;5036975;28;20231;-59
2022/08/18 05:48:38;;;;;;;2.30;2.20;;;;;;;;;;5038096;28;20212;-58
2022/08/18 05:51:12;;;;;;;2.50;2.40;;;;;;;;;;5040641;28;20309;-56
2022/08/18 05:59:09;;;;;;;2.20;2.10;;;;;;;;;;5033542;28;20281;-55
2022/08/18 06:01:40;;;;;;;2.47;2.37;;;;;;;;;;5041443;28;20232;-55
2022/08/18 06:04:07;;;;;;;2.50;2.40;;;;;;;;;;5018083;28;20252;-56
2022/08/18 06:06:33;;;;;;;2.00;1.90;;;;;;;;;;5022267;28;20584;-55
2022/08/18 06:09:12;;;;;;;1.90;1.80;;;;;;;;;;5035976;28;20250;-55
2022/08/18 06:11:38;;;;;;;2.60;2.50;;;;;;;;;;5009375;28;20578;-55
2022/08/18 06:14:04;;;;;;;1.83;1.73;;;;;;;;;;5025963;28;20221;-55
2022/08/18 06:16:31;;;;;;;2.03;1.93;;;;;;;;;;5032463;28;20233;-55
2022/08/18 06:19:26;;;;;;;2.20;2.10;;;;;;;;;;5048847;28;20316;-55
2022/08/18 06:21:58;;;;;;;2.00;1.90;;;;;;;;;;5017343;28;20322;-55
2022/08/18 06:24:26;;;;;;;1.80;1.70;;;;;;;;;;5024986;28;20669;-54
2022/08/18 06:27:04;;;;;;;2.00;1.90;;;;;;;;;;5044924;28;20237;-56
2022/08/18 06:29:33;;;;;;;1.83;1.73;;;;;;;;;;5036244;28;20228;-56
2022/08/18 06:32:02;;;;;;;1.73;1.70;;;;;;;;;;5033255;28;20833;-55
2022/08/18 06:34:50;;;;;;;1.73;1.70;;;;;;;;;;5020487;28;20234;-55
2022/08/18 06:37:25;;;;;;;1.83;1.73;;;;;;;;;;5034197;28;20223;-54
2022/08/18 06:39:51;;;;;;;1.67;1.67;;;;;;;;;;5043076;28;20220;-55
2022/08/18 06:42:20;;;;;;;1.77;1.70;;;;;;;;;;5041394;28;20254;-55
2022/08/18 06:44:50;;;;;;;1.90;1.80;;;;;;;;;;5034588;28;20230;-54
2022/08/18 06:47:30;;;;;;;1.90;1.80;;;;;;;;;;5023623;28;20208;-54
2022/08/18 06:50:00;;;;;;;1.70;1.70;;;;;;;;;;5023491;28;20718;-54
2022/08/18 06:52:30;;;;;;;1.40;1.40;;;;;;;;;;5041562;28;20228;-55
2022/08/18 06:55:17;;;;;;;1.40;1.40;;;;;;;;;;5041011;28;20226;-55
2022/08/18 06:57:52;;;;;;;1.30;1.30;;;;;;;;;;5038801;28;20231;-55
2022/08/18 07:00:18;;;;;;;1.50;1.50;;;;;;;;;;5042891;28;20246;-55
2022/08/18 07:02:44;;;;;;;1.50;1.50;;;;;;;;;;5031988;28;20235;-55
2022/08/18 07:05:19;;;;;;;1.60;1.60;;;;;;;;;;5039560;28;20732;-55
2022/08/18 07:07:45;;;;;;;1.80;1.70;;;;;;;;;;5032330;28;20227;-54
2022/08/18 07:10:28;;;;;;;1.77;1.70;;;;;;;;;;5017930;28;20308;-55
2022/08/18 07:13:05;;;;;;;1.60;1.60;;;;;;;;;;5019129;28;20242;-55
2022/08/18 07:15:31;;;;;;;1.50;1.50;;;;;;;;;;5015370;28;20308;-55
2022/08/18 07:18:02;;;;;;;1.60;1.60;;;;;;;;;;5027251;28;20307;-55
2022/08/18 07:20:29;;;;;;;1.70;1.67;;;;;;;;;;5045363;28;20349;-54
2022/08/18 07:22:59;;;;;;;1.90;1.80;;;;;;;;;;5044636;28;20594;-54
2022/08/18 07:25:27;;;;;;;1.80;1.70;;;;;;;;;;5029469;28;20328;-54
2022/08/18 07:27:55;;;;;;;1.60;1.60;;;;;;;;;;5037115;28;20254;-55
2022/08/18 07:30:22;;;;;;;1.97;1.87;;;;;;;;;;5025484;28;26173;-55
2022/08/18 07:32:59;;;;;;;2.00;1.90;;;;;;;;;;5048930;28;20250;-54
2022/08/18 07:35:55;;;;;;;2.07;1.97;;;;;;;;;;5052122;28;20215;-55
2022/08/18 07:38:31;;;;;;;1.90;1.80;;;;;;;;;;5042745;28;20239;-55
2022/08/18 07:40:59;;;;;;;1.90;1.80;;;;;;;;;;5054661;28;20239;-54
2022/08/18 07:43:28;;;;;;;1.60;1.60;;;;;;;;;;5027813;28;20229;-54
2022/08/18 07:45:55;;;;;;;1.87;1.77;;;;;;;;;;5024513;28;20224;-55
2022/08/18 07:48:32;;;;;;;1.60;1.60;;;;;;;;;;5041799;28;20716;-54
2022/08/18 07:51:17;;;;;;;1.50;1.50;;;;;;;;;;5036618;28;20232;-55
2022/08/18 07:53:43;;;;;;;1.60;1.60;;;;;;;;;;5037997;28;20254;-55
2022/08/18 07:56:17;;;;;;;1.90;1.80;;;;;;;;;;5037912;28;20214;-55
2022/08/18 07:58:48;;;;;;;1.90;1.80;;;;;;;;;;5046155;28;20226;-55
2022/08/18 08:01:18;;;;;;;1.80;1.70;;;;;;;;;;5014541;28;20669;-55
2022/08/18 08:03:52;;;;;;;1.80;1.70;;;;;;;;;;5016514;28;20283;-55
2022/08/18 08:06:28;;;;;;;1.80;1.70;;;;;;;;;;5024036;28;20261;-55
2022/08/18 08:09:13;;;;;;;2.00;1.90;;;;;;;;;;5040534;28;20227;-56
2022/08/18 08:11:43;;;;;;;1.90;1.80;;;;;;;;;;5050191;28;20232;-54
2022/08/18 08:14:28;;;;;;;1.97;1.87;;;;;;;;;;5038825;28;20295;-55
2022/08/18 08:17:00;;;;;;;2.03;1.93;;;;;;;;;;5045629;28;20220;-54
2022/08/18 08:19:26;;;;;;;1.87;1.77;;;;;;;;;;5020766;28;20235;-55
2022/08/18 08:22:08;;;;;;;2.20;2.10;;;;;;;;;;5039785;28;20247;-55
2022/08/18 08:24:55;;;;;;;2.00;1.90;;;;;;;;;;5043648;28;20311;-55
2022/08/18 08:27:21;;;;;;;1.60;1.60;;;;;;;;;;5046543;28;20236;-55
2022/08/18 08:29:49;;;;;;;1.60;1.60;;;;;;;;;;5040166;28;20223;-55
2022/08/18 08:32:16;;;;;;;1.60;1.60;;;;;;;;;;5025024;28;20220;-55
2022/08/18 08:34:44;;;;;;;2.10;2.00;;;;;;;;;;5033791;28;20216;-54
2022/08/18 08:37:20;;;;;;;1.90;1.80;;;;;;;;;;5024339;28;20232;-54
2022/08/18 08:39:54;;;;;;;1.83;1.73;;;;;;;;;;5023696;28;20267;-55
2022/08/18 08:42:37;;;;;;;2.10;2.00;;;;;;;;;;5041385;28;20235;-55
2022/08/18 08:45:11;;;;;;;1.83;1.73;;;;;;;;;;5037001;28;20224;-55
2022/08/18 08:47:37;;;;;;;1.97;1.87;;;;;;;;;;5017093;28;20239;-55
2022/08/18 08:50:03;;;;;;;1.70;1.70;;;;;;;;;;5038305;28;20217;-55
2022/08/18 08:52:30;;;;;;;1.95;1.85;;;;;;;;;;5033946;28;20593;-55
2022/08/18 08:55:00;;;;;;;1.90;1.80;;;;;;;;;;5040354;28;20234;-55
2022/08/18 08:57:27;;;;;;;1.90;1.80;;;;;;;;;;5015830;28;20221;-55
2022/08/18 08:59:53;;;;;;;1.95;1.85;;;;;;;;;;5026791;28;20245;-55
2022/08/18 09:02:23;;;;;;;1.90;1.80;;;;;;;;;;5041009;28;20236;-55
2022/08/18 09:04:54;;;;;;;1.50;1.50;;;;;;;;;;5046934;28;20250;-55
2022/08/18 09:07:26;;;;;;;1.60;1.60;;;;;;;;;;5028116;28;20306;-56
2022/08/18 09:10:01;;;;;;;1.60;1.60;;;;;;;;;;5039535;28;20228;-55
2022/08/18 09:12:27;;;;;;;1.50;1.50;;;;;;;;;;5033530;28;20335;-54
2022/08/18 09:14:59;;;;;;;1.60;1.60;;;;;;;;;;5032661;28;20653;-55
2022/08/18 09:17:32;;;;;;;1.60;1.60;;;;;;;;;;5041243;28;20219;-54
2022/08/18 09:20:07;;;;;;;1.70;1.70;;;;;;;;;;5041028;28;20219;-55
2022/08/18 09:22:51;;;;;;;1.80;1.70;;;;;;;;;;5035248;28;20228;-55
2022/08/18 09:25:33;;;;;;;1.88;1.77;;;;;;;;;;5013632;28;20688;-54
2022/08/18 09:28:10;;;;;;;1.60;1.60;;;;;;;;;;5022361;28;20276;-55
2022/08/18 09:30:42;;;;;;;1.50;1.50;;;;;;;;;;5044798;28;20242;-54
2022/08/18 09:33:21;;;;;;;1.50;1.50;;;;;;;;;;5035180;28;20227;-55
2022/08/18 09:35:56;;;;;;;2.05;1.95;;;;;;;;;;5036070;28;20238;-55
2022/08/18 09:43:53;;;;;;;2.00;1.90;;;;;;;;;;5040326;28;20310;-55
2022/08/18 09:46:38;;;;;;;1.75;1.70;;;;;;;;;;5035494;28;20242;-55
2022/08/18 09:49:25;;;;;;;1.80;1.70;;;;;;;;;;5024833;28;20908;-55
2022/08/18 09:51:55;;;;;;;1.50;1.50;;;;;;;;;;5034839;28;20231;-54
2022/08/18 09:54:26;;;;;;;1.55;1.55;;;;;;;;;;5027967;28;20248;-55
2022/08/18 09:57:15;;;;;;;1.50;1.50;;;;;;;;;;5046392;28;20221;-55
2022/08/18 09:59:44;;;;;;;1.40;1.40;;;;;;;;;;5026361;28;20223;-55
2022/08/18 10:02:26;;;;;;;1.60;1.60;;;;;;;;;;5038055;28;20786;-55
2022/08/18 10:05:09;;;;;;;2.00;1.90;;;;;;;;;;5042414;28;20637;-55
2022/08/18 10:07:36;;;;;;;1.90;1.80;;;;;;;;;;5052236;28;20262;-56
2022/08/18 10:10:21;;;;;;;2.13;2.03;;;;;;;;;;5016957;28;20224;-55
2022/08/18 10:12:55;;;;;;;1.98;1.88;;;;;;;;;;5038296;28;20255;-55
2022/08/18 10:15:24;;;;;;;2.10;2.00;;;;;;;;;;5033428;28;20239;-55
2022/08/18 10:18:08;;;;;;;2.05;1.95;;;;;;;;;;5029283;28;20255;-55
2022/08/18 10:20:53;;;;;;;1.95;1.85;;;;;;;;;;5029323;28;20352;-55
2022/08/18 10:23:38;;;;;;;2.00;1.90;;;;;;;;;;5020484;28;20315;-55
2022/08/18 10:26:04;;;;;;;1.88;1.77;;;;;;;;;;5033760;28;20227;-55
2022/08/18 10:28:48;;;;;;;2.00;1.90;;;;;;;;;;5024882;28;20231;-55
2022/08/18 10:31:14;;;;;;;1.95;1.85;;;;;;;;;;5023755;28;20219;-55
2022/08/18 10:33:57;;;;;;;2.13;2.03;;;;;;;;;;5039302;28;20230;-55
2022/08/18 10:36:42;;;;;;;1.92;1.83;;;;;;;;;;5035217;28;20279;-55
2022/08/18 10:39:12;;;;;;;1.90;1.80;;;;;;;;;;5033246;28;20239;-55
2022/08/18 10:41:43;;;;;;;1.90;1.80;;;;;;;;;;5031646;28;20234;-55
2022/08/18 10:44:12;;;;;;;1.70;1.70;;;;;;;;;;5038488;28;20330;-55
2022/08/18 10:46:40;;;;;;;1.60;1.60;;;;;;;;;;5014822;28;20311;-55
2022/08/18 10:49:15;;;;;;;1.88;1.77;;;;;;;;;;5040845;28;20272;-55
2022/08/18 10:51:59;;;;;;;1.80;1.70;;;;;;;;;;5020414;28;20216;-55
2022/08/18 10:54:26;;;;;;;1.95;1.85;;;;;;;;;;5034968;28;20231;-55
2022/08/18 10:56:53;;;;;;;1.55;1.55;;;;;;;;;;5036485;28;20232;-56
2022/08/18 10:59:31;;;;;;;1.80;1.70;;;;;;;;;;5040435;28;20270;-55
2022/08/18 11:02:03;;;;;;;1.42;1.42;;;;;;;;;;5028179;28;20232;-55
2022/08/18 11:04:35;;;;;;;1.60;1.60;;;;;;;;;;5042713;28;20238;-55
2022/08/18 11:07:21;;;;;;;1.60;1.60;;;;;;;;;;5013492;28;20234;-55
2022/08/18 11:09:48;;;;;;;2.00;1.90;;;;;;;;;;5036366;28;20576;-55
2022/08/18 11:12:14;;;;;;;1.70;1.70;;;;;;;;;;5041551;28;20827;-55
2022/08/18 11:14:43;;;;;;;1.50;1.50;;;;;;;;;;5013969;28;20311;-55
2022/08/18 11:17:24;;;;;;;1.60;1.60;;;;;;;;;;5021069;28;20297;-55
2022/08/18 11:19:50;;;;;;;1.80;1.70;;;;;;;;;;5039637;28;20374;-56
2022/08/18 11:22:23;;;;;;;1.60;1.60;;;;;;;;;;5042986;28;20677;-57
2022/08/18 11:24:50;;;;;;;1.60;1.60;;;;;;;;;;5025393;28;20299;-57
2022/08/18 11:27:17;;;;;;;1.80;1.70;;;;;;;;;;5059591;28;20220;-58
2022/08/18 11:29:45;;;;;;;1.60;1.60;;;;;;;;;;5044039;28;20224;-56
2022/08/18 11:32:16;;;;;;;1.60;1.60;;;;;;;;;;5030329;28;20235;-56
2022/08/18 11:34:43;;;;;;;1.60;1.60;;;;;;;;;;5031936;28;20290;-57
2022/08/18 11:37:18;;;;;;;1.60;1.60;;;;;;;;;;5017850;28;20243;-57
2022/08/18 11:39:48;;;;;;;1.80;1.70;;;;;;;;;;5026779;28;20237;-56
2022/08/18 11:42:14;;;;;;;1.60;1.60;;;;;;;;;;5030969;28;20227;-56
2022/08/18 11:44:40;;;;;;;1.65;1.65;;;;;;;;;;5047430;28;20298;-57
2022/08/18 11:47:12;;;;;;;1.65;1.65;;;;;;;;;;5034652;28;20410;-57
2022/08/18 11:49:38;;;;;;;1.50;1.50;;;;;;;;;;5033821;28;20307;-56
2022/08/18 11:52:18;;;;;;;1.45;1.45;;;;;;;;;;5021149;28;20222;-56
2022/08/18 11:54:45;;;;;;;1.50;1.50;;;;;;;;;;5033745;28;20220;-56
2022/08/18 11:57:30;;;;;;;1.50;1.50;;;;;;;;;;5038950;28;20921;-56
2022/08/18 11:59:56;;;;;;;1.60;1.60;;;;;;;;;;5034478;28;20729;-57
2022/08/18 12:02:24;;;;;;;1.50;1.50;;;;;;;;;;5046489;28;20225;-56
2022/08/18 12:04:51;;;;;;;1.50;1.50;;;;;;;;;;5037146;28;20685;-57
2022/08/18 12:07:18;;;;;;;1.48;1.48;;;;;;;;;;5034264;28;20223;-56
2022/08/18 12:09:45;;;;;;;1.45;1.45;;;;;;;;;;5020266;28;20219;-57
2022/08/18 12:12:24;;;;;;;1.30;1.30;;;;;;;;;;5013461;28;20688;-56
2022/08/18 12:14:54;;;;;;;1.23;1.23;;;;;;;;;;5044077;28;20231;-56
2022/08/18 12:17:20;;;;;;;1.30;1.30;;;;;;;;;;5039654;28;20356;-58
2022/08/18 12:19:46;;;;;;;1.30;1.30;;;;;;;;;;5028863;28;20213;-57
2022/08/18 12:22:14;;;;;;;1.20;1.20;;;;;;;;;;5037870;28;20239;-57
2022/08/18 12:24:40;;;;;;;1.20;1.20;;;;;;;;;;5018946;28;20594;-56
2022/08/18 12:27:06;;;;;;;1.30;1.30;;;;;;;;;;5033120;28;20938;-56
2022/08/18 12:29:33;;;;;;;1.10;1.10;;;;;;;;;;5039854;28;20224;-56
2022/08/18 12:31:59;;;;;;;1.17;1.17;;;;;;;;;;5032382;28;20216;-56
2022/08/18 12:34:25;;;;;;;1.10;1.10;;;;;;;;;;5029013;28;20811;-56
2022/08/18 12:36:52;;;;;;;1.10;1.10;;;;;;;;;;5039777;28;20292;-56
2022/08/18 12:39:18;;;;;;;1.20;1.20;;;;;;;;;;5035360;28;20639;-56
2022/08/18 12:41:44;;;;;;;1.38;1.38;;;;;;;;;;5023183;28;20757;-56
2022/08/18 12:44:10;;;;;;;1.60;1.60;;;;;;;;;;5032696;28;20798;-56
2022/08/18 12:46:36;;;;;;;2.00;1.90;;;;;;;;;;5022836;28;20304;-57
2022/08/18 12:49:02;;;;;;;1.60;1.60;;;;;;;;;;5043073;28;20230;-56
2022/08/18 12:51:28;;;;;;;1.60;1.60;;;;;;;;;;5023424;28;20217;-56
2022/08/18 12:53:54;;;;;;;1.50;1.50;;;;;;;;;;5023558;28;20219;-57
2022/08/18 12:56:21;;;;;;;1.65;1.65;;;;;;;;;;5024742;28;20700;-56
2022/08/18 12:58:48;;;;;;;1.60;1.60;;;;;;;;;;5016692;28;20219;-56
2022/08/18 13:01:14;;;;;;;1.80;1.70;;;;;;;;;;5047074;28;20231;-57
2022/08/18 13:03:40;;;;;;;1.70;1.70;;;;;;;;;;5051918;28;20281;-56
2022/08/18 13:06:06;;;;;;;1.85;1.75;;;;;;;;;;5044229;28;20230;-56
2022/08/18 13:08:32;;;;;;;1.42;1.40;;;;;;;;;;5039519;28;20303;-56
2022/08/18 13:10:59;;;;;;;1.40;1.40;;;;;;;;;;5034315;28;20230;-58
2022/08/18 13:13:25;;;;;;;1.50;1.50;;;;;;;;;;5028065;28;20248;-58
2022/08/18 13:15:53;;;;;;;1.60;1.60;;;;;;;;;;5035343;28;20340;-57
2022/08/18 13:18:19;;;;;;;1.50;1.50;;;;;;;;;;5020059;28;20760;-57
2022/08/18 13:20:45;;;;;;;1.60;1.60;;;;;;;;;;5039648;28;20223;-56
2022/08/18 13:23:11;;;;;;;1.50;1.50;;;;;;;;;;5043681;28;20683;-56
2022/08/18 13:25:37;;;;;;;1.80;1.70;;;;;;;;;;5033631;28;20219;-56
2022/08/18 13:28:03;;;;;;;1.80;1.70;;;;;;;;;;5035370;28;20273;-56
2022/08/18 13:30:29;;;;;;;1.63;1.63;;;;;;;;;;5035429;28;20796;-56
2022/08/18 13:32:55;;;;;;;1.50;1.50;;;;;;;;;;5034090;28;20224;-56
2022/08/18 13:35:21;;;;;;;1.60;1.60;;;;;;;;;;5015948;28;20294;-58
2022/08/18 13:37:47;;;;;;;1.73;1.70;;;;;;;;;;5049132;28;20246;-57
2022/08/18 13:40:13;;;;;;;1.70;1.70;;;;;;;;;;5048383;28;20265;-57
2022/08/18 13:42:44;;;;;;;1.40;1.40;;;;;;;;;;5036279;28;20694;-56
2022/08/18 13:45:11;;;;;;;1.58;1.58;;;;;;;;;;5030342;28;20370;-56
2022/08/18 13:47:37;;;;;;;1.50;1.50;;;;;;;;;;5024633;28;20677;-56
2022/08/18 13:50:03;;;;;;;1.45;1.45;;;;;;;;;;5046082;28;20223;-56
2022/08/18 13:52:29;;;;;;;1.60;1.60;;;;;;;;;;5030201;28;21217;-56
2022/08/18 13:54:55;;;;;;;1.60;1.60;;;;;;;;;;5038502;28;20304;-55
2022/08/18 13:57:21;;;;;;;1.60;1.60;;;;;;;;;;5041377;28;20222;-56
2022/08/18 13:59:47;;;;;;;1.60;1.60;;;;;;;;;;5034107;28;20285;-57
2022/08/18 14:02:13;;;;;;;1.60;1.60;;;;;;;;;;5024202;28;20312;-56
2022/08/18 14:04:39;;;;;;;1.40;1.40;;;;;;;;;;5033304;28;20708;-56
2022/08/18 14:07:05;;;;;;;1.50;1.50;;;;;;;;;;5022766;28;20231;-56
2022/08/18 14:09:31;;;;;;;1.48;1.48;;;;;;;;;;5027416;28;20223;-56
2022/08/18 14:11:57;;;;;;;1.40;1.40;;;;;;;;;;5035695;28;20217;-56
2022/08/18 14:14:23;;;;;;;1.40;1.40;;;;;;;;;;5035319;28;20226;-57
2022/08/18 14:16:49;;;;;;;1.60;1.60;;;;;;;;;;5038688;28;20226;-56
2022/08/18 14:27:31;;;;;;;1.33;1.33;;;;;;;;;;5024847;28;20370;-56
2022/08/18 14:29:57;;;;;;;1.40;1.40;;;;;;;;;;5038546;28;20243;-56
2022/08/18 14:32:25;;;;;;;1.27;1.27;;;;;;;;;;5038467;28;20697;-56
2022/08/18 14:34:52;;;;;;;1.15;1.15;;;;;;;;;;5037952;28;20235;-56
2022/08/18 14:37:18;;;;;;;1.40;1.40;;;;;;;;;;5032822;28;20746;-56
2022/08/18 14:39:44;;;;;;;1.30;1.30;;;;;;;;;;5032818;28;20823;-56
2022/08/18 14:42:11;;;;;;;1.27;1.27;;;;;;;;;;5044488;28;20235;-56
2022/08/18 14:44:37;;;;;;;1.30;1.30;;;;;;;;;;5014528;28;20715;-58
2022/08/18 14:47:03;;;;;;;1.33;1.33;;;;;;;;;;5032716;28;20224;-56
2022/08/18 14:49:30;;;;;;;1.30;1.30;;;;;;;;;;5033232;28;20270;-56
2022/08/18 14:51:59;;;;;;;1.40;1.40;;;;;;;;;;5042114;28;20250;-57
2022/08/18 14:54:25;;;;;;;1.20;1.20;;;;;;;;;;5038171;28;20222;-57
2022/08/18 14:56:51;;;;;;;1.40;1.40;;;;;;;;;;5033061;28;20253;-57
2022/08/18 14:59:16;;;;;;;1.20;1.20;;;;;;;;;;5024719;28;20663;-57
2022/08/18 15:01:42;;;;;;;1.50;1.50;;;;;;;;;;5026066;28;20384;-55
2022/08/18 15:04:10;;;;;;;1.40;1.40;;;;;;;;;;5037424;28;20282;-57
2022/08/18 15:06:36;;;;;;;1.30;1.30;;;;;;;;;;5046958;28;20242;-56
2022/08/18 15:09:02;;;;;;;1.40;1.40;;;;;;;;;;5027382;28;20224;-58
2022/08/18 15:11:28;;;;;;;1.30;1.30;;;;;;;;;;5031729;28;20635;-56
2022/08/18 15:13:54;;;;;;;1.20;1.20;;;;;;;;;;5045014;28;20212;-57
2022/08/18 15:16:21;;;;;;;1.30;1.30;;;;;;;;;;5029061;28;21217;-56
2022/08/18 15:18:48;;;;;;;1.20;1.20;;;;;;;;;;5043413;28;20619;-57
2022/08/18 15:26:44;;;;;;;1.20;1.20;;;;;;;;;;5040238;28;20243;-56